Phillips, NE (68865)

11:51 PM CST on February 12, 2016 (GMT -0600)
Barr | | Change Station
CLOSE
Current Station
Personal Weather Station
Location: Grand Island, NE
Elevation: 1864 ft
Nearby Weather Stations

Elev 1864 ft 40.90 °N, 98.34 °W | Updated 1 minute ago

Overcast
Overcast
17.6 °F
Feels Like 10 °F
N
5.3
Wind Variable Wind from ESE

Today
High -- | Low -- °F
--% Chance of Precip.
Yesterday
High -- | Low -- °F
Precip. -- in
Pressure 30.66 in
Visibility 10.0 miles
Clouds Overcast 9000 ft
Windchill 10 °F
Dew Point 12 °F
Humidity 79%
Rainfall 0.00 in
Snow Depth Not available.
7:31 AM 6:03 PM
Waxing Crescent, 27% visible
METAR KGRI 130453Z AUTO 08008KT 10SM OVC090 M08/M13 A3056 RMK AO2 SLP381 T10781128
Pressure 30.66 in
Visibility 10.0 miles
Clouds Overcast 9000 ft
Windchill 10 °F
Dew Point 12 °F
Humidity 79%
Rainfall 0.00 in
Snow Depth Not available.
7:31 AM 6:03 PM
Waxing Crescent, 27% visible
METAR KGRI 130453Z AUTO 08008KT 10SM OVC090 M08/M13 A3056 RMK AO2 SLP381 T10781128

10-Day Weather Forecast

Almanac

Astronomy

Feb. 12, 2016 Rise Set
Actual Time
Civil Twilight
Nautical Twilight
Astronomical Twilight
Moon
Length of Visible Light
Length of Day
Tomorrow will be .
, % of the Moon is Illuminated

Today's Extremes

State Highs State Lows

Community

WunderPhotos

Upload Photos

1,892,507 photos uploaded!

WunderBlog® & News

Nearby

Air Quality

  Air Quality AQ Index Pollutant
Not available.

Snow Depth

Station Depth Elevation

Earthquake Activity

City Distance Mag. Time & Date
Minimum magnitude displayed is 2.5.

Coastal Water Temperatures

Place Temperature

Stations

Nearby Weather Stations

Station Location Temp. Windchill Dew Point Humidity Wind Precip. Elev Updated Type
                   

Watches & Warnings

There are currently no watches in effect.